createdAt,value
2023-03-13T00:01:43.654Z,26.40
2023-03-13T00:06:44.027Z,23.10
2023-03-13T00:11:43.634Z,25.60
2023-03-13T00:16:43.032Z,17.30
2023-03-13T00:21:42.676Z,20.10
2023-03-13T00:26:42.203Z,20.70
2023-03-13T00:31:41.230Z,12.40
2023-03-13T00:36:41.438Z,21.30
2023-03-13T00:41:41.891Z,18.40
2023-03-13T00:46:41.550Z,17.40
2023-03-13T00:51:41.827Z,15.80
2023-03-13T00:56:40.889Z,17.80
2023-03-13T01:01:40.665Z,15.10
2023-03-13T01:06:43.178Z,18.80
2023-03-13T01:11:45.506Z,19.30
2023-03-13T01:16:47.722Z,20.50
2023-03-13T01:21:48.685Z,18.60
2023-03-13T01:26:48.052Z,17.10
2023-03-13T01:31:48.423Z,16.80
2023-03-13T01:36:50.690Z,18.90
2023-03-13T01:41:49.220Z,21.60
2023-03-13T01:46:48.170Z,21.40
2023-03-13T01:52:14.661Z,20.30
2023-03-13T01:57:26.265Z,19.40
2023-03-13T02:02:28.502Z,16.50
2023-03-13T02:07:38.755Z,19.10
2023-03-13T02:12:42.252Z,18.30
2023-03-13T02:17:43.379Z,16.90
2023-03-13T02:22:51.303Z,16.20
2023-03-13T02:27:56.675Z,11.70
2023-03-13T02:32:56.556Z,18.90
2023-03-13T02:38:02.399Z,16.80
2023-03-13T02:43:09.010Z,17.60
2023-03-13T02:48:11.498Z,10.40
2023-03-13T02:53:15.540Z,13.10
2023-03-13T02:58:14.315Z,13.60
2023-03-13T03:03:13.455Z,12.80
2023-03-13T03:08:13.062Z,13.40
2023-03-13T03:13:13.193Z,14.90
2023-03-13T03:18:12.934Z,12.50
2023-03-13T03:23:12.260Z,14.00
2023-03-13T03:28:11.198Z,12.50
2023-03-13T03:33:10.992Z,9.30
2023-03-13T03:38:12.929Z,11.40
2023-03-13T03:43:12.895Z,13.40
2023-03-13T03:48:13.392Z,14.90
2023-03-13T03:53:13.636Z,13.40
2023-03-13T03:58:13.496Z,11.80
2023-03-13T04:03:28.545Z,9.20
2023-03-13T04:08:29.009Z,14.50
2023-03-13T04:13:29.134Z,9.90
2023-03-13T04:18:30.885Z,11.60
2023-03-13T04:23:30.735Z,13.10
2023-03-13T04:28:30.332Z,11.90
2023-03-13T04:33:30.787Z,10.50
2023-03-13T04:38:52.080Z,11.30
2023-03-13T04:44:26.387Z,8.50
2023-03-13T04:49:30.769Z,10.50
2023-03-13T04:54:48.257Z,14.10
2023-03-13T05:00:11.636Z,13.10
2023-03-13T05:05:12.625Z,10.90
2023-03-13T05:10:27.231Z,12.50
2023-03-13T05:15:59.420Z,13.90
2023-03-13T05:21:18.482Z,12.60
2023-03-13T05:26:44.481Z,17.90
2023-03-13T05:31:55.438Z,11.90
2023-03-13T05:37:13.944Z,12.30
2023-03-13T05:42:42.770Z,13.70
2023-03-13T05:47:51.660Z,14.70
2023-03-13T05:52:51.203Z,15.50
2023-03-13T05:58:29.300Z,13.20
2023-03-13T06:03:45.089Z,15.50
2023-03-13T06:08:45.435Z,14.40
2023-03-13T06:13:45.577Z,15.10
2023-03-13T06:18:57.262Z,16.20
2023-03-13T06:23:57.810Z,13.80
2023-03-13T06:28:57.374Z,13.70
2023-03-13T06:33:58.960Z,17.50
2023-03-13T06:38:57.604Z,11.90
2023-03-13T06:43:57.446Z,13.80
2023-03-13T06:48:56.901Z,17.10
2023-03-13T06:53:55.511Z,12.40
2023-03-13T06:58:54.922Z,11.40
2023-03-13T07:03:54.763Z,14.60
2023-03-13T07:08:54.794Z,17.40
2023-03-13T07:14:06.503Z,19.30
2023-03-13T07:19:12.961Z,16.90
2023-03-13T07:24:12.907Z,14.50
2023-03-13T07:29:12.425Z,14.50
2023-03-13T07:34:11.952Z,12.10
2023-03-13T07:39:11.205Z,17.10
2023-03-13T07:44:11.042Z,13.30
2023-03-13T07:49:10.708Z,11.50
2023-03-13T07:54:10.585Z,11.60
2023-03-13T07:59:10.232Z,12.00
2023-03-13T08:04:11.354Z,15.60
2023-03-13T08:09:11.334Z,16.30
2023-03-13T08:14:10.994Z,17.40
2023-03-13T08:19:11.854Z,15.40
2023-03-13T08:24:13.889Z,16.10
2023-03-13T08:29:16.486Z,14.70
2023-03-13T08:34:18.626Z,15.80
2023-03-13T08:39:20.475Z,14.60
2023-03-13T08:44:21.670Z,15.60
2023-03-13T08:49:21.476Z,18.30
2023-03-13T08:54:21.123Z,12.80
2023-03-13T08:59:20.287Z,14.40
2023-03-13T09:04:20.582Z,17.10
2023-03-13T09:09:20.034Z,10.10
2023-03-13T09:14:19.802Z,13.70
2023-03-13T09:19:19.505Z,12.80
2023-03-13T09:24:20.250Z,14.50
2023-03-13T09:29:19.520Z,12.00
2023-03-13T09:34:18.772Z,15.90
2023-03-13T09:39:17.881Z,11.30
2023-03-13T09:44:27.754Z,15.10
2023-03-13T09:49:36.605Z,16.70
2023-03-13T09:54:42.760Z,11.20
2023-03-13T09:59:51.518Z,12.20
2023-03-13T10:04:56.585Z,11.10
2023-03-13T10:09:56.300Z,12.00
2023-03-13T10:15:19.128Z,12.00
2023-03-13T10:20:29.238Z,8.50
2023-03-13T10:25:36.085Z,8.70
2023-03-13T10:30:39.685Z,10.50
2023-03-13T10:35:43.560Z,9.70
2023-03-13T10:40:44.347Z,5.70
2023-03-13T10:45:44.513Z,12.50
2023-03-13T10:50:48.705Z,10.20
2023-03-13T10:55:49.292Z,11.30
2023-03-13T11:00:50.067Z,10.50
2023-03-13T11:05:58.405Z,9.10
2023-03-13T11:11:01.583Z,12.10
2023-03-13T11:16:08.076Z,6.80
2023-03-13T11:21:18.151Z,10.30
2023-03-13T11:26:28.296Z,9.20
2023-03-13T11:31:37.354Z,11.10
2023-03-13T11:36:45.491Z,8.90
2023-03-13T11:42:02.033Z,6.50
2023-03-13T11:47:18.557Z,7.10
2023-03-13T11:52:32.482Z,11.60
2023-03-13T11:57:41.280Z,10.40
2023-03-13T12:02:49.901Z,8.70
2023-03-13T12:07:56.993Z,10.50
2023-03-13T12:13:05.158Z,8.90
2023-03-13T12:18:09.328Z,8.20
2023-03-13T12:23:21.538Z,10.80
2023-03-13T12:28:31.549Z,8.70
2023-03-13T12:33:40.974Z,9.80
2023-03-13T12:38:49.514Z,11.90
2023-03-13T12:44:07.225Z,11.10
2023-03-13T12:49:47.652Z,8.80
2023-03-13T12:55:04.769Z,9.60
2023-03-13T13:00:06.969Z,8.80
2023-03-13T13:05:07.403Z,13.20
2023-03-13T13:10:22.902Z,7.90
2023-03-13T13:15:27.209Z,9.50
2023-03-13T13:20:50.299Z,12.80
2023-03-13T13:25:49.884Z,7.90
2023-03-13T13:30:49.816Z,11.60
2023-03-13T13:36:09.733Z,9.20
2023-03-13T13:41:35.136Z,10.80
2023-03-13T13:46:36.632Z,13.00
2023-03-13T13:51:37.809Z,11.90
2023-03-13T13:57:09.313Z,9.40
2023-03-13T14:02:23.430Z,8.60
2023-03-13T14:07:30.328Z,11.40
2023-03-13T14:12:40.621Z,10.10
2023-03-13T14:17:46.657Z,15.50
2023-03-13T14:22:53.735Z,9.70
2023-03-13T14:27:55.518Z,16.60
2023-03-13T14:32:55.820Z,7.80
2023-03-13T14:38:02.452Z,14.40
2023-03-13T14:43:04.062Z,9.50
2023-03-13T14:48:28.805Z,12.80
2023-03-13T14:53:29.105Z,7.90
2023-03-13T14:58:33.419Z,9.20
2023-03-13T15:03:37.595Z,6.40
2023-03-13T15:08:38.467Z,7.90
2023-03-13T15:13:40.746Z,11.10
2023-03-13T15:18:42.671Z,12.50
2023-03-13T15:23:42.411Z,10.00
2023-03-13T15:28:40.964Z,7.90
2023-03-13T15:33:40.132Z,9.30
2023-03-13T15:38:40.358Z,11.20
2023-03-13T15:43:40.115Z,12.90
2023-03-13T15:48:40.706Z,12.10
2023-03-13T15:53:40.236Z,9.70
2023-03-13T15:58:40.156Z,11.30
2023-03-13T16:03:39.781Z,7.00
2023-03-13T16:08:38.889Z,7.10
2023-03-13T16:13:37.544Z,10.00
2023-03-13T16:18:38.992Z,7.60
2023-03-13T16:23:37.959Z,9.70
2023-03-13T16:28:36.854Z,12.10
2023-03-13T16:33:36.473Z,11.00
2023-03-13T16:38:36.034Z,10.20
2023-03-13T16:43:35.306Z,6.00
2023-03-13T16:48:34.513Z,8.50
2023-03-13T16:53:33.579Z,6.20
2023-03-13T16:58:33.351Z,5.10
2023-03-13T17:03:32.284Z,10.70
2023-03-13T17:08:31.262Z,7.80
2023-03-13T17:13:29.936Z,9.20
2023-03-13T17:18:31.116Z,9.80
2023-03-13T17:23:31.018Z,7.90
2023-03-13T17:28:32.478Z,9.90
2023-03-13T17:33:33.212Z,7.20
2023-03-13T17:38:32.634Z,7.10
2023-03-13T17:43:33.033Z,10.40
2023-03-13T17:48:32.998Z,8.90
2023-03-13T17:53:32.291Z,9.50
2023-03-13T17:58:32.620Z,9.00
2023-03-13T18:03:32.043Z,9.60
2023-03-13T18:08:31.691Z,9.90
2023-03-13T18:13:31.205Z,7.50
2023-03-13T18:18:30.776Z,11.50
2023-03-13T18:23:30.400Z,12.80
2023-03-13T18:28:30.272Z,10.50
2023-03-13T18:33:29.824Z,8.20
2023-03-13T18:38:29.210Z,9.60
2023-03-13T18:43:28.847Z,8.40
2023-03-13T18:48:28.151Z,6.70
2023-03-13T18:53:27.214Z,10.60
2023-03-13T18:58:26.469Z,8.20
2023-03-13T19:03:26.132Z,6.50
2023-03-13T19:08:25.243Z,9.10
2023-03-13T19:13:24.853Z,7.90
2023-03-13T19:18:24.394Z,7.10
2023-03-13T19:23:24.211Z,6.20
2023-03-13T19:28:23.662Z,10.30
2023-03-13T19:33:22.637Z,7.10
2023-03-13T19:38:21.937Z,8.40
2023-03-13T19:43:22.533Z,5.70
2023-03-13T19:48:22.150Z,7.40
2023-03-13T19:53:21.679Z,7.40
2023-03-13T19:58:20.790Z,7.80
2023-03-13T20:03:21.180Z,6.80
2023-03-13T20:08:20.994Z,8.50
2023-03-13T20:13:20.666Z,8.30
2023-03-13T20:18:19.483Z,8.30
2023-03-13T20:23:19.404Z,8.70
2023-03-13T20:28:19.949Z,6.70
2023-03-13T20:33:20.282Z,8.60
2023-03-13T20:38:19.315Z,6.60
2023-03-13T20:43:18.648Z,9.20
2023-03-13T20:48:19.482Z,7.50
2023-03-13T20:53:19.010Z,7.50
2023-03-13T20:58:20.326Z,8.00
2023-03-13T21:03:20.191Z,6.60
2023-03-13T21:08:19.511Z,9.10
2023-03-13T21:13:18.938Z,8.90
2023-03-13T21:18:20.536Z,10.20
2023-03-13T21:23:22.424Z,7.60
2023-03-13T21:28:27.208Z,8.30
2023-03-13T21:33:30.892Z,9.60
2023-03-13T21:38:30.823Z,7.50
2023-03-13T21:43:30.353Z,7.50
2023-03-13T21:48:30.533Z,7.90
2023-03-13T21:53:32.882Z,6.60
2023-03-13T21:58:34.958Z,8.70
2023-03-13T22:03:34.427Z,7.70
2023-03-13T22:08:33.885Z,7.20
2023-03-13T22:13:34.331Z,9.10
2023-03-13T22:18:33.709Z,9.40
2023-03-13T22:23:33.365Z,9.30
2023-03-13T22:28:33.137Z,9.30
2023-03-13T22:33:32.214Z,9.40
2023-03-13T22:38:32.150Z,11.80
2023-03-13T22:43:34.725Z,9.30
2023-03-13T22:48:33.802Z,10.80
2023-03-13T22:53:35.268Z,7.50
2023-03-13T22:58:35.770Z,11.70
2023-03-13T23:03:34.936Z,8.40
2023-03-13T23:08:34.669Z,9.20
2023-03-13T23:13:35.044Z,7.50
2023-03-13T23:18:34.177Z,9.50
2023-03-13T23:23:35.921Z,8.80
2023-03-13T23:28:36.907Z,8.60
2023-03-13T23:33:36.727Z,9.90
2023-03-13T23:38:36.587Z,8.40
2023-03-13T23:43:36.315Z,9.90
2023-03-13T23:48:39.858Z,9.00
2023-03-13T23:53:43.983Z,8.60
2023-03-13T23:58:45.320Z,8.10
